Time;durP1;ratioP1;P1;durP2;ratioP2;P2;SDS_P1;SDS_P2;PMS_P1;PMS_P2;Temp;Humidity;BMP_temperature;BMP_pressure;BME280_temperature;BME280_humidity;BME280_pressure;Samples;Min_cycle;Max_cycle;Signal;HPM_P1;HPM_P2
2021/11/12 00:02:47;;;;;;;0.30;0.30;;;;;;;7.65;100.00;101638.53;5006252;28;20050;-79
2021/11/12 00:13:45;;;;;;;0.30;0.30;;;;;;;7.62;100.00;101635.47;5006235;28;20053;-80
2021/11/12 00:16:24;;;;;;;0.40;0.40;;;;;;;7.68;100.00;101648.09;5005729;28;20046;-79
2021/11/12 00:18:53;;;;;;;0.47;0.47;;;;;;;7.69;100.00;101643.47;5005579;28;20715;-78
2021/11/12 00:21:26;;;;;;;0.40;0.40;;;;;;;7.69;100.00;101644.28;5005422;28;20488;-79
2021/11/12 00:24:00;;;;;;;0.50;0.50;;;;;;;7.66;100.00;101655.59;5004263;28;20050;-78
2021/11/12 00:26:35;;;;;;;0.40;0.40;;;;;;;7.64;100.00;101636.06;5031331;28;20056;-78
2021/11/12 00:29:07;;;;;;;0.50;0.50;;;;;;;7.63;100.00;101654.19;5012597;28;20483;-78
2021/11/12 00:31:46;;;;;;;0.50;0.40;;;;;;;7.65;100.00;101659.38;5003574;28;20050;-78
2021/11/12 00:34:44;;;;;;;0.50;0.50;;;;;;;7.64;100.00;101647.72;5006178;28;20429;-78
2021/11/12 00:37:22;;;;;;;0.65;0.60;;;;;;;7.60;100.00;101637.59;5005173;28;20046;-79
2021/11/12 00:39:57;;;;;;;0.32;0.32;;;;;;;7.63;100.00;101639.84;5005765;28;20054;-78
2021/11/12 00:42:31;;;;;;;0.40;0.40;;;;;;;7.64;100.00;101641.50;5003444;28;20061;-79
2021/11/12 00:45:07;;;;;;;0.35;0.35;;;;;;;7.61;100.00;101641.94;5003473;28;20414;-78
2021/11/12 00:47:48;;;;;;;0.40;0.40;;;;;;;7.61;100.00;101660.91;5004892;28;20038;-80
2021/11/12 00:55:54;;;;;;;0.30;0.30;;;;;;;7.65;100.00;101640.41;5007328;28;20076;-79
2021/11/12 00:58:28;;;;;;;1.25;0.52;;;;;;;7.66;100.00;101639.34;5008974;28;20054;-78
2021/11/12 01:01:04;;;;;;;0.77;0.60;;;;;;;7.59;100.00;101636.75;5011259;28;20038;-77
2021/11/12 01:03:38;;;;;;;0.40;0.40;;;;;;;7.59;100.00;101655.72;5007796;28;20512;-78
2021/11/12 01:06:06;;;;;;;0.30;0.30;;;;;;;7.60;100.00;101653.84;5007739;28;20521;-79
2021/11/12 01:08:40;;;;;;;0.40;0.40;;;;;;;7.55;100.00;101645.59;5005141;28;20366;-79
2021/11/12 01:11:15;;;;;;;0.50;0.50;;;;;;;7.57;100.00;101648.91;5007671;28;20053;-78
2021/11/12 01:13:45;;;;;;;0.38;0.38;;;;;;;7.60;100.00;101660.09;5006904;28;20061;-79
2021/11/12 01:16:15;;;;;;;0.47;0.47;;;;;;;7.61;100.00;101642.78;5005722;28;20057;-79
2021/11/12 01:18:43;;;;;;;1.15;0.70;;;;;;;7.60;100.00;101641.13;5002694;28;20058;-78
2021/11/12 01:21:18;;;;;;;0.40;0.40;;;;;;;7.60;100.00;101630.28;5009659;28;20058;-78
2021/11/12 01:23:54;;;;;;;0.40;0.40;;;;;;;7.59;100.00;101635.94;5008054;28;20061;-79
2021/11/12 01:26:28;;;;;;;0.30;0.30;;;;;;;7.56;100.00;101642.66;5005341;28;20402;-78
2021/11/12 01:29:04;;;;;;;0.30;0.30;;;;;;;7.60;100.00;101638.41;5006736;28;20562;-78
2021/11/12 01:31:39;;;;;;;1.30;0.75;;;;;;;7.53;100.00;101632.31;5006181;28;20691;-78
2021/11/12 01:34:12;;;;;;;0.52;0.52;;;;;;;7.51;100.00;101633.59;5007198;28;20049;-79
2021/11/12 01:36:47;;;;;;;0.40;0.40;;;;;;;7.54;100.00;101635.81;5003927;28;20053;-78
2021/11/12 01:39:22;;;;;;;0.85;0.50;;;;;;;7.51;100.00;101639.00;5004814;28;20051;-79
2021/11/12 01:41:59;;;;;;;0.30;0.30;;;;;;;7.56;100.00;101631.81;5022019;28;20045;-77
2021/11/12 01:44:32;;;;;;;0.40;0.40;;;;;;;7.58;100.00;101629.72;5004170;28;20058;-78
2021/11/12 01:47:18;;;;;;;0.50;0.50;;;;;;;7.48;100.00;101626.75;5004007;28;20049;-78
2021/11/12 01:49:53;;;;;;;0.45;0.45;;;;;;;7.55;100.00;101619.34;5029516;28;20355;-78
2021/11/12 01:52:33;;;;;;;0.40;0.40;;;;;;;7.50;100.00;101619.25;5003223;28;20060;-78
2021/11/12 01:55:09;;;;;;;0.40;0.40;;;;;;;7.55;100.00;101608.50;5007018;28;20049;-78
2021/11/12 01:57:53;;;;;;;0.30;0.30;;;;;;;7.52;100.00;101602.75;5003399;28;20073;-78
2021/11/12 02:00:30;;;;;;;0.22;0.22;;;;;;;7.53;100.00;101607.94;5009976;28;20415;-78
2021/11/12 02:03:04;;;;;;;0.30;0.30;;;;;;;7.48;100.00;101595.09;5034711;28;20042;-79
2021/11/12 02:05:38;;;;;;;0.40;0.40;;;;;;;7.52;100.00;101592.72;5009963;28;20065;-79
2021/11/12 02:08:11;;;;;;;0.40;0.40;;;;;;;7.53;100.00;101607.13;5005729;28;20046;-78
2021/11/12 02:10:44;;;;;;;0.40;0.40;;;;;;;7.54;100.00;101600.63;5002504;28;20058;-78
2021/11/12 02:13:20;;;;;;;0.30;0.30;;;;;;;7.51;100.00;101590.25;5006520;28;20049;-79
2021/11/12 02:15:55;;;;;;;0.30;0.30;;;;;;;7.51;100.00;101591.06;5007970;28;20060;-79
2021/11/12 02:18:30;;;;;;;0.40;0.40;;;;;;;7.49;100.00;101590.50;5003770;28;20054;-79
2021/11/12 02:21:10;;;;;;;0.40;0.40;;;;;;;7.50;100.00;101589.44;5001974;28;20053;-78
2021/11/12 02:23:47;;;;;;;0.38;0.38;;;;;;;7.49;100.00;101585.91;5005464;28;20045;-79
2021/11/12 02:26:22;;;;;;;;;;;;;;;7.51;100.00;101588.34;5008078;28;20046;-79
2021/11/12 02:28:57;;;;;;;0.40;0.40;;;;;;;7.49;100.00;101587.78;5010270;28;20369;-79
2021/11/12 02:31:31;;;;;;;0.50;0.50;;;;;;;7.47;100.00;101589.91;5005122;28;20037;-79
2021/11/12 02:34:06;;;;;;;0.40;0.40;;;;;;;7.51;100.00;101584.84;5006164;28;20061;-78
2021/11/12 02:36:41;;;;;;;0.32;0.32;;;;;;;7.52;100.00;101586.50;5004388;28;20422;-78
2021/11/12 02:39:14;;;;;;;0.50;0.50;;;;;;;7.54;100.00;101584.34;5007001;28;20046;-78
2021/11/12 02:41:47;;;;;;;0.50;0.50;;;;;;;7.46;100.00;101572.03;5001199;28;20442;-78
2021/11/12 02:44:20;;;;;;;1.50;0.80;;;;;;;7.49;100.00;101575.06;4999868;28;20069;-79
2021/11/12 02:46:53;;;;;;;1.02;0.85;;;;;;;7.46;100.00;101572.03;5003397;28;20042;-79
2021/11/12 02:49:22;;;;;;;1.73;1.17;;;;;;;7.39;100.00;101565.88;5004577;28;20057;-79
2021/11/12 02:51:56;;;;;;;0.52;0.52;;;;;;;7.40;100.00;101570.25;5003086;28;20068;-79
2021/11/12 02:54:26;;;;;;;1.13;0.70;;;;;;;7.42;100.00;101560.00;5005069;28;20054;-79
2021/11/12 02:57:00;;;;;;;0.80;0.68;;;;;;;7.39;100.00;101555.03;5007384;28;20514;-78
2021/11/12 02:59:33;;;;;;;2.55;1.25;;;;;;;7.42;100.00;101560.81;5006854;28;20516;-78
2021/11/12 03:02:08;;;;;;;1.80;1.10;;;;;;;7.40;100.00;101565.66;5003330;28;20068;-79
2021/11/12 03:04:36;;;;;;;0.75;0.65;;;;;;;7.39;100.00;101563.16;5000084;28;20061;-78
2021/11/12 03:07:11;;;;;;;0.68;0.60;;;;;;;7.40;100.00;101559.41;5004768;28;20057;-78
2021/11/12 03:09:45;;;;;;;0.73;0.50;;;;;;;7.42;100.00;101557.31;5001098;28;20049;-78
2021/11/12 03:12:18;;;;;;;0.60;0.55;;;;;;;7.32;100.00;101550.59;5006114;28;20068;-78
2021/11/12 03:14:52;;;;;;;0.73;0.70;;;;;;;7.33;100.00;101556.81;5002593;28;20046;-78
2021/11/12 03:17:26;;;;;;;0.50;0.50;;;;;;;7.34;100.00;101557.66;5000487;28;20046;-78
2021/11/12 03:19:55;;;;;;;0.55;0.32;;;;;;;7.40;100.00;101554.84;5001844;28;20054;-79
2021/11/12 03:22:34;;;;;;;0.50;0.50;;;;;;;7.38;100.00;101550.72;5020572;28;20068;-79
2021/11/12 03:25:09;;;;;;;0.55;0.40;;;;;;;7.33;100.00;101551.41;5005005;28;20045;-78
2021/11/12 03:27:44;;;;;;;0.75;0.73;;;;;;;7.34;100.00;101536.00;5006036;28;20049;-79
2021/11/12 04:01:45;;;;;;;0.40;0.40;;;;;;;7.22;100.00;101536.84;4946246;28;20051;-79
2021/11/12 04:04:24;;;;;;;0.40;0.40;;;;;;;7.23;100.00;101532.22;4996892;28;20064;-78
2021/11/12 04:07:05;;;;;;;0.50;0.50;;;;;;;7.24;100.00;101526.59;5000201;28;20414;-79
2021/11/12 04:18:14;;;;;;;0.90;0.60;;;;;;;7.21;100.00;101532.47;5002586;28;20058;-78
2021/11/12 04:49:40;;;;;;;0.88;0.60;;;;;;;7.12;100.00;101499.50;5006850;28;20049;-78
2021/11/12 05:46:37;;;;;;;0.95;0.60;;;;;;;7.04;100.00;101489.03;5003950;28;20054;-78
2021/11/12 05:52:03;;;;;;;0.47;0.47;;;;;;;7.02;100.00;101477.63;5004557;28;20061;-78
2021/11/12 05:57:23;;;;;;;0.50;0.50;;;;;;;7.00;100.00;101468.09;5003028;28;20050;-78
2021/11/12 05:59:56;;;;;;;0.98;0.60;;;;;;;7.02;100.00;101463.28;5006139;28;20387;-79
2021/11/12 06:02:32;;;;;;;2.47;1.00;;;;;;;7.02;100.00;101463.28;5009387;28;20058;-78
2021/11/12 06:05:00;;;;;;;1.17;0.75;;;;;;;7.01;100.00;101462.44;5007121;28;20453;-79
2021/11/12 06:07:35;;;;;;;1.00;0.68;;;;;;;7.04;100.00;101464.69;4997984;28;20046;-78
2021/11/12 06:10:06;;;;;;;0.90;0.60;;;;;;;7.03;100.00;101463.06;5008045;28;20502;-78
2021/11/12 06:12:39;;;;;;;1.08;0.77;;;;;;;7.03;100.00;101456.78;5001741;28;20046;-77
2021/11/12 06:15:12;;;;;;;1.77;0.88;;;;;;;7.03;100.00;101467.63;5004885;28;20057;-79
2021/11/12 06:17:46;;;;;;;1.75;0.77;;;;;;;7.04;100.00;101470.09;5006840;28;20395;-78
2021/11/12 06:20:19;;;;;;;0.90;0.60;;;;;;;7.02;100.00;101472.22;5003681;28;20042;-79
2021/11/12 06:22:52;;;;;;;1.02;0.60;;;;;;;7.04;100.00;101464.69;5001884;28;20053;-78
2021/11/12 06:25:27;;;;;;;0.60;0.60;;;;;;;7.03;100.00;101464.91;5003013;28;20387;-78
2021/11/12 06:28:01;;;;;;;0.32;0.32;;;;;;;7.07;100.00;101452.56;5004804;28;20536;-79
2021/11/12 06:30:29;;;;;;;0.50;0.50;;;;;;;7.05;100.00;101455.50;5005123;28;20053;-79
2021/11/12 06:33:02;;;;;;;0.45;0.45;;;;;;;7.08;100.00;101455.03;4999951;28;20379;-79
2021/11/12 06:35:35;;;;;;;0.40;0.40;;;;;;;7.09;100.00;101448.56;5006460;28;20049;-78
2021/11/12 06:38:10;;;;;;;0.52;0.45;;;;;;;7.10;100.00;101450.22;5003892;28;20054;-79
2021/11/12 06:40:45;;;;;;;0.40;0.40;;;;;;;7.11;100.00;101443.75;5007566;28;20045;-79
2021/11/12 06:43:23;;;;;;;1.60;1.00;;;;;;;7.11;100.00;101442.91;5004638;28;20485;-79
2021/11/12 06:51:33;;;;;;;0.70;0.60;;;;;;;7.06;100.00;101440.91;5003330;28;20065;-77
2021/11/12 06:54:07;;;;;;;1.10;0.70;;;;;;;7.13;100.00;101438.09;5006862;28;20379;-77
2021/11/12 06:56:42;;;;;;;0.68;0.52;;;;;;;7.08;100.00;101435.25;5003118;28;20418;-78
2021/11/12 06:59:16;;;;;;;0.60;0.60;;;;;;;7.17;100.00;101430.28;5002507;28;20053;-77
2021/11/12 07:01:49;;;;;;;0.57;0.50;;;;;;;7.05;100.00;101427.63;5019504;28;20497;-78
2021/11/12 07:04:17;;;;;;;0.73;0.63;;;;;;;7.09;100.00;101424.19;4999876;28;20399;-78
2021/11/12 07:06:51;;;;;;;0.63;0.60;;;;;;;7.10;100.00;101420.44;5032239;28;20057;-79
2021/11/12 07:09:24;;;;;;;0.85;0.60;;;;;;;7.08;100.00;101419.84;5006542;28;20069;-79
2021/11/12 07:11:59;;;;;;;1.08;0.70;;;;;;;7.13;100.00;101416.44;5000241;28;20403;-79
2021/11/12 07:14:32;;;;;;;0.57;0.57;;;;;;;7.06;100.00;101419.25;5004096;28;20068;-79
2021/11/12 07:17:07;;;;;;;0.40;0.40;;;;;;;7.08;100.00;101410.91;5005196;28;20483;-77
2021/11/12 07:19:41;;;;;;;0.43;0.43;;;;;;;7.06;100.00;101418.44;5003771;28;20046;-78
2021/11/12 07:22:09;;;;;;;0.45;0.45;;;;;;;7.07;100.00;101418.22;5000786;28;20499;-78
2021/11/12 07:24:42;;;;;;;0.50;0.50;;;;;;;7.10;100.00;101423.13;5003659;28;20064;-78
2021/11/12 07:27:19;;;;;;;0.50;0.50;;;;;;;7.08;100.00;101410.91;5001995;28;20045;-77
2021/11/12 07:29:49;;;;;;;0.50;0.50;;;;;;;7.12;100.00;101423.72;5005607;28;20049;-78
2021/11/12 07:32:22;;;;;;;0.40;0.40;;;;;;;7.19;100.00;101428.19;5005145;28;20034;-79
2021/11/12 07:34:56;;;;;;;0.40;0.40;;;;;;;7.15;100.00;101428.66;5037161;28;20065;-78
2021/11/12 07:37:31;;;;;;;0.40;0.40;;;;;;;7.14;100.00;101426.22;5005017;28;20046;-80
2021/11/12 07:40:08;;;;;;;0.40;0.40;;;;;;;7.19;100.00;101433.59;5005601;28;20398;-79
2021/11/12 07:42:54;;;;;;;0.40;0.40;;;;;;;7.22;100.00;101435.81;5005456;28;20045;-79
2021/11/12 07:45:31;;;;;;;0.40;0.40;;;;;;;7.16;100.00;101421.38;5007926;28;20046;-79
2021/11/12 07:48:00;;;;;;;0.47;0.47;;;;;;;7.15;100.00;101431.38;5005259;28;20046;-78
2021/11/12 07:50:29;;;;;;;0.40;0.40;;;;;;;7.21;100.00;101424.19;5004546;28;20050;-78
2021/11/12 07:53:02;;;;;;;0.50;0.50;;;;;;;7.25;100.00;101417.22;5006189;28;20046;-79
2021/11/12 07:55:30;;;;;;;0.60;0.50;;;;;;;7.30;100.00;101413.78;4995234;28;20061;-79
2021/11/12 07:58:05;;;;;;;0.50;0.50;;;;;;;7.25;100.00;101414.53;4986695;28;20049;-81
2021/11/12 08:00:39;;;;;;;0.40;0.40;;;;;;;7.25;100.00;101387.44;4985792;28;20058;-79
2021/11/12 08:03:14;;;;;;;0.40;0.40;;;;;;;7.25;100.00;101392.88;4982737;28;20500;-78
2021/11/12 08:05:45;;;;;;;1.05;0.52;;;;;;;7.26;100.00;101396.38;4986940;28;20058;-79
2021/11/12 08:08:20;;;;;;;0.80;0.70;;;;;;;7.23;100.00;101392.28;4988906;28;20061;-79
2021/11/12 08:10:56;;;;;;;0.85;0.60;;;;;;;7.24;100.00;101393.09;4994341;28;20104;-78
2021/11/12 08:13:35;;;;;;;0.60;0.60;;;;;;;7.20;100.00;101378.41;4986816;28;20489;-81
2021/11/12 08:16:18;;;;;;;0.50;0.50;;;;;;;7.24;100.00;101385.00;4985478;28;21539;-80
2021/11/12 08:18:52;;;;;;;0.40;0.40;;;;;;;7.27;100.00;101382.59;4986172;28;20141;-80
2021/11/12 08:21:31;;;;;;;0.43;0.43;;;;;;;7.27;100.00;101377.19;4994568;28;20042;-80
2021/11/12 08:24:07;;;;;;;0.47;0.47;;;;;;;7.29;100.00;101363.41;4989897;28;20053;-81
2021/11/12 08:26:54;;;;;;;0.38;0.38;;;;;;;7.32;100.00;101371.06;4992576;28;20068;-81
2021/11/12 08:29:48;;;;;;;0.50;0.50;;;;;;;7.38;100.00;101377.41;4982410;28;20060;-78
2021/11/12 08:32:40;;;;;;;0.50;0.50;;;;;;;7.36;100.00;101372.22;4998537;28;20451;-79
2021/11/12 08:35:27;;;;;;;0.45;0.45;;;;;;;7.35;100.00;101373.28;4989926;28;20986;-81
2021/11/12 08:38:04;;;;;;;0.40;0.40;;;;;;;7.41;100.00;101372.31;4994992;28;20060;-79
2021/11/12 08:40:48;;;;;;;0.50;0.50;;;;;;;7.43;100.00;101362.06;4991993;28;20586;-79
2021/11/12 08:43:25;;;;;;;0.40;0.40;;;;;;;7.40;100.00;101359.00;4985741;28;20054;-79
2021/11/12 08:46:13;;;;;;;0.40;0.40;;;;;;;7.38;100.00;101366.56;4987602;28;20057;-80
2021/11/12 08:48:55;;;;;;;0.38;0.38;;;;;;;7.41;100.00;101358.78;4985680;28;20065;-80
2021/11/12 08:51:33;;;;;;;0.30;0.30;;;;;;;7.43;100.00;101358.53;4993578;28;20064;-79
2021/11/12 08:54:03;;;;;;;0.40;0.40;;;;;;;7.46;100.00;101363.47;4995782;28;20521;-80
2021/11/12 08:56:37;;;;;;;0.32;0.32;;;;;;;7.44;100.00;101360.19;4980965;28;20506;-79
2021/11/12 08:59:10;;;;;;;0.32;0.32;;;;;;;7.45;100.00;101362.63;4984681;28;20402;-80
2021/11/12 09:01:45;;;;;;;0.22;0.22;;;;;;;7.61;100.00;101371.03;4990977;28;20050;-80
2021/11/12 09:04:18;;;;;;;0.38;0.38;;;;;;;7.47;100.00;101357.81;4989482;28;21095;-81
2021/11/12 09:06:51;;;;;;;0.40;0.40;;;;;;;7.52;100.00;101362.50;4984454;28;20065;-81
2021/11/12 09:09:20;;;;;;;0.30;0.30;;;;;;;7.48;100.00;101351.34;4991886;28;20050;-80
2021/11/12 09:11:54;;;;;;;0.30;0.30;;;;;;;7.55;100.00;101350.34;4987234;28;20046;-80
2021/11/12 09:14:29;;;;;;;0.40;0.40;;;;;;;7.59;100.00;101355.03;4995361;28;20058;-80
2021/11/12 09:17:05;;;;;;;0.22;0.22;;;;;;;7.72;100.00;101347.66;4989406;28;20573;-80
2021/11/12 09:19:45;;;;;;;0.30;0.30;;;;;;;7.80;100.00;101344.56;4990517;28;20183;-80
2021/11/12 09:22:14;;;;;;;0.30;0.30;;;;;;;7.98;100.00;101335.38;4983512;28;20050;-80
2021/11/12 09:24:48;;;;;;;0.30;0.30;;;;;;;8.02;100.00;101324.88;4989053;28;20050;-80
2021/11/12 09:27:17;;;;;;;0.30;0.30;;;;;;;7.96;100.00;101316.66;4983667;28;20627;-80
2021/11/12 09:29:47;;;;;;;0.30;0.30;;;;;;;7.88;100.00;101337.94;4994134;28;20042;-80
2021/11/12 09:32:21;;;;;;;0.30;0.30;;;;;;;7.89;100.00;101331.44;4994913;28;20061;-79
2021/11/12 09:34:54;;;;;;;0.25;0.25;;;;;;;7.85;100.00;101328.41;4993809;28;20054;-79
2021/11/12 09:37:27;;;;;;;0.30;0.30;;;;;;;7.81;100.00;101325.34;4996855;28;20050;-79
2021/11/12 09:40:01;;;;;;;0.30;0.30;;;;;;;7.87;100.00;101320.88;4993181;28;20057;-80
2021/11/12 09:42:36;;;;;;;0.30;0.30;;;;;;;7.77;100.00;101326.09;5022418;28;20410;-76
2021/11/12 09:45:11;;;;;;;0.25;0.25;;;;;;;7.86;100.00;101315.66;4978962;28;20510;-81
2021/11/12 09:47:47;;;;;;;0.30;0.30;;;;;;;7.85;100.00;101314.03;4996865;28;20053;-80
2021/11/12 09:50:25;;;;;;;0.20;0.20;;;;;;;7.88;100.00;101311.63;4990019;28;20058;-79
2021/11/12 09:53:00;;;;;;;0.30;0.30;;;;;;;7.96;100.00;101316.66;4990686;28;20046;-80
2021/11/12 09:55:34;;;;;;;0.30;0.30;;;;;;;7.96;100.00;101316.66;4988559;28;20056;-80
2021/11/12 09:58:04;;;;;;;0.20;0.20;;;;;;;8.05;100.00;101314.38;4986092;28;20064;-81
2021/11/12 10:00:34;;;;;;;0.28;0.28;;;;;;;8.06;100.00;101313.28;4987937;28;20058;-81
2021/11/12 10:03:06;;;;;;;0.30;0.30;;;;;;;8.06;100.00;101301.63;4986108;28;20050;-80
2021/11/12 10:06:00;;;;;;;0.30;0.30;;;;;;;8.07;100.00;101298.66;5001644;28;20053;-80
2021/11/12 10:08:33;;;;;;;0.20;0.20;;;;;;;8.15;100.00;101313.72;5002987;28;20425;-81
2021/11/12 10:11:09;;;;;;;0.30;0.30;;;;;;;8.27;100.00;101310.88;4998023;28;20054;-78
2021/11/12 10:13:45;;;;;;;0.20;0.20;;;;;;;8.21;100.00;101311.88;4986768;28;20054;-78
2021/11/12 10:16:24;;;;;;;0.20;0.20;;;;;;;8.24;100.00;101311.38;4989531;28;20062;-80
2021/11/12 10:19:08;;;;;;;0.30;0.30;;;;;;;8.18;100.00;101305.88;4983262;28;20060;-79
2021/11/12 10:21:43;;;;;;;0.20;0.20;;;;;;;8.20;100.00;101308.34;4981211;28;20401;-78
2021/11/12 10:24:20;;;;;;;0.20;0.20;;;;;;;8.08;100.00;101310.31;4986130;28;20050;-78
2021/11/12 10:26:57;;;;;;;0.20;0.20;;;;;;;8.06;100.00;101315.19;4990072;28;20057;-78
2021/11/12 10:29:33;;;;;;;0.30;0.30;;;;;;;8.12;100.00;101306.88;4983627;28;20053;-80
2021/11/12 10:32:09;;;;;;;0.20;0.20;;;;;;;8.26;100.00;101299.22;4985792;28;20196;-80
2021/11/12 10:34:40;;;;;;;0.30;0.30;;;;;;;8.11;100.00;101304.44;4986870;28;20049;-79
2021/11/12 10:37:19;;;;;;;0.20;0.20;;;;;;;8.15;100.00;101300.16;5007490;28;20069;-79
2021/11/12 10:39:56;;;;;;;0.20;0.20;;;;;;;8.13;100.00;101289.56;4993090;28;20056;-79
2021/11/12 10:42:32;;;;;;;0.30;0.30;;;;;;;8.28;100.00;101296.25;4992757;28;20054;-80
2021/11/12 10:45:08;;;;;;;0.28;0.28;;;;;;;8.31;100.00;101293.03;4986831;28;20050;-81
2021/11/12 10:47:47;;;;;;;0.20;0.20;;;;;;;8.29;100.00;101285.16;4980703;28;20067;-79
2021/11/12 10:50:24;;;;;;;0.20;0.20;;;;;;;8.39;100.00;101270.09;4979224;28;20060;-79
2021/11/12 10:53:00;;;;;;;0.20;0.20;;;;;;;8.37;100.00;101278.50;4984433;28;20081;-79
2021/11/12 10:55:35;;;;;;;0.20;0.20;;;;;;;8.39;100.00;101270.09;4982884;28;20054;-79
2021/11/12 10:58:06;;;;;;;0.20;0.20;;;;;;;8.46;100.00;101273.47;4981387;28;20058;-79
2021/11/12 11:00:35;;;;;;;0.20;0.20;;;;;;;8.55;100.00;101260.28;4984805;28;20061;-80
2021/11/12 11:03:10;;;;;;;0.20;0.20;;;;;;;8.61;100.00;101265.53;4985589;28;20061;-80
2021/11/12 11:05:47;;;;;;;0.30;0.30;;;;;;;8.56;100.00;101265.50;4984382;28;20377;-79
2021/11/12 11:08:23;;;;;;;0.27;0.27;;;;;;;8.63;100.00;101257.13;4993996;28;20505;-80
2021/11/12 11:10:59;;;;;;;0.20;0.20;;;;;;;8.71;100.00;101256.69;4979504;28;20425;-80
2021/11/12 11:13:30;;;;;;;0.20;0.20;;;;;;;8.65;100.00;101250.41;4978025;28;20581;-79
2021/11/12 11:16:05;;;;;;;0.20;0.20;;;;;;;8.72;100.00;101243.97;4977794;28;20065;-79
2021/11/12 11:18:43;;;;;;;0.20;0.20;;;;;;;8.77;100.00;101244.00;4983784;28;20449;-79
2021/11/12 11:21:25;;;;;;;0.20;0.20;;;;;;;8.74;100.00;101234.50;4979447;28;20410;-80
2021/11/12 11:24:04;;;;;;;0.20;0.20;;;;;;;8.84;100.00;101237.31;4980357;28;20867;-80
2021/11/12 11:26:44;;;;;;;0.20;0.20;;;;;;;8.88;100.00;101236.81;4977408;28;20057;-78
2021/11/12 11:29:15;;;;;;;0.20;0.20;;;;;;;8.87;100.00;101227.06;4982773;28;20048;-79
2021/11/12 11:31:49;;;;;;;0.10;0.10;;;;;;;8.90;100.00;101219.19;4985928;28;20061;-78
2021/11/12 11:34:18;;;;;;;0.20;0.20;;;;;;;8.92;100.00;101217.06;4981650;28;20106;-79
2021/11/12 11:36:50;;;;;;;0.20;0.20;;;;;;;8.89;100.00;101214.03;4992282;28;20083;-79
2021/11/12 11:39:24;;;;;;;0.20;0.20;;;;;;;8.84;100.00;101206.66;4985313;28;20061;-78
2021/11/12 11:41:58;;;;;;;0.20;0.20;;;;;;;8.87;100.00;101210.75;4989251;28;20057;-79
2021/11/12 11:44:32;;;;;;;0.20;0.20;;;;;;;8.70;100.00;101200.81;4988960;28;20678;-79
2021/11/12 11:47:05;;;;;;;0.20;0.20;;;;;;;8.66;100.00;101207.81;4996099;28;20053;-81
2021/11/12 11:49:38;;;;;;;0.20;0.20;;;;;;;8.64;100.00;101194.47;4987045;28;20054;-78
2021/11/12 11:52:25;;;;;;;0.20;0.20;;;;;;;8.56;100.00;101196.84;4984518;28;20053;-79
2021/11/12 11:54:58;;;;;;;0.20;0.20;;;;;;;8.50;100.00;101198.66;4984224;28;20045;-82
2021/11/12 11:57:31;;;;;;;0.20;0.20;;;;;;;8.58;100.00;101202.84;4987441;28;20049;-77
2021/11/12 12:00:22;;;;;;;0.20;0.20;;;;;;;8.55;100.00;101190.59;4987095;28;20049;-79
2021/11/12 12:03:23;;;;;;;0.20;0.20;;;;;;;8.44;100.00;101199.66;4985191;28;20050;-79
2021/11/12 12:06:05;;;;;;;0.20;0.20;;;;;;;8.39;100.00;101192.25;4985254;28;20782;-78
2021/11/12 12:08:50;;;;;;;0.20;0.20;;;;;;;8.34;100.00;101193.03;4980927;28;20868;-78
2021/11/12 12:11:24;;;;;;;0.20;0.20;;;;;;;8.38;100.00;101189.81;4984260;28;20045;-79
2021/11/12 12:14:18;;;;;;;0.20;0.20;;;;;;;8.33;100.00;101179.72;4986776;28;20045;-79
2021/11/12 12:17:06;;;;;;;0.20;0.20;;;;;;;8.24;100.00;101163.06;4983583;28;20038;-79
2021/11/12 12:19:45;;;;;;;0.20;0.20;;;;;;;8.16;100.00;101169.75;4991713;28;20054;-77
2021/11/12 12:35:04;;;;;;;0.20;0.20;;;;;;;7.99;100.00;101161.66;4992219;28;20057;-79
2021/11/12 13:21:32;;;;;;;0.30;0.30;;;;;;;7.53;100.00;101108.75;4977628;28;20532;-79
2021/11/12 13:24:29;;;;;;;0.20;0.20;;;;;;;7.56;100.00;101095.50;4990112;28;20046;-78
2021/11/12 13:27:04;;;;;;;0.20;0.20;;;;;;;7.52;100.00;101094.38;4999903;28;20053;-78
2021/11/12 13:29:43;;;;;;;0.20;0.20;;;;;;;7.47;100.00;101078.88;4983143;28;20050;-79
2021/11/12 13:32:16;;;;;;;0.25;0.25;;;;;;;7.42;100.00;101081.50;4994341;28;20671;-79
2021/11/12 13:34:49;;;;;;;0.20;0.20;;;;;;;7.46;100.00;101081.84;5009625;28;20042;-79
2021/11/12 13:37:26;;;;;;;0.20;0.20;;;;;;;7.48;100.00;101077.81;4986396;28;20057;-79
2021/11/12 13:40:07;;;;;;;0.20;0.20;;;;;;;7.45;100.00;101066.66;4986731;28;20050;-78
2021/11/12 13:42:43;;;;;;;0.20;0.20;;;;;;;7.46;100.00;101062.88;4990904;28;20418;-79
2021/11/12 13:45:16;;;;;;;0.20;0.20;;;;;;;7.41;100.00;101057.38;4996467;28;20406;-78
2021/11/12 13:48:01;;;;;;;0.10;0.10;;;;;;;7.37;100.00;101064.38;4995921;28;20060;-80
2021/11/12 13:50:34;;;;;;;0.20;0.20;;;;;;;7.33;100.00;101066.75;4997132;28;20053;-79
2021/11/12 13:53:09;;;;;;;0.20;0.20;;;;;;;7.31;100.00;101058.06;4985451;28;20135;-79
2021/11/12 13:55:44;;;;;;;0.22;0.22;;;;;;;7.25;100.00;101051.75;4982687;28;20046;-77
2021/11/12 13:58:20;;;;;;;0.20;0.20;;;;;;;7.25;100.00;101042.78;4985621;28;20478;-78
2021/11/12 14:00:56;;;;;;;0.20;0.20;;;;;;;7.23;100.00;101037.63;4989986;28;20607;-77
2021/11/12 14:03:34;;;;;;;0.10;0.10;;;;;;;7.25;100.00;101043.63;4994084;28;20508;-79
2021/11/12 14:06:11;;;;;;;0.20;0.20;;;;;;;7.23;100.00;101034.94;4987005;28;20053;-78
2021/11/12 14:08:46;;;;;;;0.20;0.20;;;;;;;7.28;100.00;101042.31;4989146;28;20088;-79
2021/11/12 14:11:24;;;;;;;0.20;0.20;;;;;;;7.28;100.00;101034.19;4996095;28;20058;-78
2021/11/12 14:14:03;;;;;;;0.20;0.20;;;;;;;7.24;100.00;101042.00;4997185;28;20388;-78
2021/11/12 14:16:46;;;;;;;0.20;0.20;;;;;;;7.13;100.00;101035.59;4985995;28;21238;-78
2021/11/12 14:19:44;;;;;;;0.20;0.20;;;;;;;7.14;100.00;101041.84;4986195;28;21370;-77
2021/11/12 14:22:31;;;;;;;0.20;0.20;;;;;;;7.15;100.00;101043.47;4992591;28;20493;-77
2021/11/12 14:25:16;;;;;;;0.28;0.28;;;;;;;7.03;100.00;101042.72;4981627;28;20057;-76
2021/11/12 14:28:03;;;;;;;0.20;0.20;;;;;;;6.97;100.00;101031.84;5002561;28;20501;-78
2021/11/12 14:30:58;;;;;;;0.25;0.25;;;;;;;6.84;100.00;101032.19;4985089;28;20053;-77
2021/11/12 14:33:42;;;;;;;0.30;0.30;;;;;;;6.73;100.00;101017.66;4986366;28;20057;-77
2021/11/12 14:36:26;;;;;;;0.30;0.30;;;;;;;6.59;100.00;101016.38;5020962;28;20679;-78
2021/11/12 14:39:01;;;;;;;0.20;0.20;;;;;;;6.60;100.00;101017.97;4998160;28;20050;-79
2021/11/12 14:42:01;;;;;;;0.20;0.20;;;;;;;6.47;100.00;101002.91;4991528;28;20053;-78
2021/11/12 14:44:56;;;;;;;0.20;0.20;;;;;;;6.38;100.00;100997.09;4985590;28;20400;-75
2021/11/12 14:47:42;;;;;;;0.20;0.20;;;;;;;6.28;100.00;100996.88;4986226;28;20070;-79
2021/11/12 14:50:29;;;;;;;0.20;0.20;;;;;;;6.19;100.00;101001.06;4986979;28;20441;-77
2021/11/12 14:53:07;;;;;;;0.30;0.30;;;;;;;6.17;100.00;101003.97;4990722;28;20353;-78
2021/11/12 14:55:42;;;;;;;0.20;0.20;;;;;;;6.19;100.00;100987.56;4985844;28;20041;-78
2021/11/12 14:58:18;;;;;;;0.20;0.20;;;;;;;6.16;100.00;101002.38;4985966;28;20049;-77
2021/11/12 15:00:52;;;;;;;0.28;0.28;;;;;;;6.02;100.00;100988.34;4981284;28;20053;-78
2021/11/12 15:03:25;;;;;;;0.20;0.20;;;;;;;6.04;100.00;100985.38;4982903;28;20054;-77
2021/11/12 15:06:00;;;;;;;0.20;0.20;;;;;;;6.00;100.00;100974.22;4991003;28;20058;-77
2021/11/12 15:08:41;;;;;;;0.30;0.30;;;;;;;5.95;100.00;100976.81;4984727;28;20061;-76
2021/11/12 15:11:16;;;;;;;0.20;0.20;;;;;;;5.89;100.00;100978.59;4984948;28;20068;-78
2021/11/12 15:13:51;;;;;;;0.20;0.20;;;;;;;5.85;100.00;100966.63;4986502;28;20084;-76
2021/11/12 15:16:26;;;;;;;0.20;0.20;;;;;;;5.81;100.00;100962.75;5008734;28;20058;-77
2021/11/12 15:18:57;;;;;;;0.17;0.17;;;;;;;5.77;100.00;100961.59;4986481;28;20052;-77
2021/11/12 15:21:35;;;;;;;0.20;0.20;;;;;;;5.76;100.00;100965.38;4981611;28;20045;-77
2021/11/12 15:24:19;;;;;;;0.20;0.20;;;;;;;5.71;100.00;100963.38;4988673;28;20466;-77
2021/11/12 15:27:00;;;;;;;0.20;0.20;;;;;;;5.67;100.00;100958.72;4988234;28;20046;-77
2021/11/12 15:29:36;;;;;;;0.20;0.20;;;;;;;5.61;100.00;100958.63;4985020;28;20513;-76
2021/11/12 15:32:14;;;;;;;0.20;0.20;;;;;;;5.64;100.00;100956.50;4980432;28;20065;-78